createdAt,value
2023-06-17T00:04:31.986Z,60.84
2023-06-17T00:14:58.631Z,60.83
2023-06-17T00:25:25.509Z,60.67
2023-06-17T00:35:55.732Z,60.65
2023-06-17T00:46:58.133Z,60.90
2023-06-17T00:57:22.549Z,60.81
2023-06-17T01:07:54.324Z,60.63
2023-06-17T01:18:19.306Z,60.15
2023-06-17T01:28:45.885Z,54.16
2023-06-17T01:39:11.647Z,51.72
2023-06-17T01:49:35.446Z,55.87
2023-06-17T02:00:00.506Z,67.28
2023-06-17T02:10:26.644Z,66.34
2023-06-17T02:20:51.010Z,63.98
2023-06-17T02:31:15.284Z,63.56
2023-06-17T02:41:39.817Z,63.45
2023-06-17T02:52:04.000Z,63.14
2023-06-17T03:02:28.899Z,62.65
2023-06-17T03:12:53.495Z,62.61
2023-06-17T03:23:17.505Z,62.16
2023-06-17T03:33:43.252Z,61.83
2023-06-17T03:44:07.661Z,62.46
2023-06-17T03:54:32.032Z,63.79
2023-06-17T04:04:57.100Z,63.98
2023-06-17T04:15:23.758Z,63.49
2023-06-17T04:25:47.682Z,63.10
2023-06-17T04:36:12.666Z,62.29
2023-06-17T04:46:38.222Z,61.52
2023-06-17T04:57:03.029Z,61.37
2023-06-17T05:07:27.220Z,61.53
2023-06-17T05:17:51.692Z,61.66
2023-06-17T05:28:15.951Z,61.97
2023-06-17T05:38:41.276Z,62.80
2023-06-17T05:49:05.493Z,63.31
2023-06-17T05:59:31.309Z,63.99
2023-06-17T06:09:56.829Z,64.09
2023-06-17T06:20:21.257Z,63.95
2023-06-17T06:30:45.111Z,63.88
2023-06-17T06:41:09.942Z,63.34
2023-06-17T06:51:38.425Z,62.77
2023-06-17T07:02:02.480Z,61.67
2023-06-17T07:12:28.676Z,60.93
2023-06-17T07:22:53.113Z,60.24
2023-06-17T07:33:17.462Z,60.40
2023-06-17T07:43:42.298Z,60.67
2023-06-17T07:54:06.895Z,61.68
2023-06-17T08:04:30.860Z,60.33
2023-06-17T08:14:55.292Z,61.61
2023-06-17T08:25:19.935Z,60.19
2023-06-17T08:35:43.710Z,62.40
2023-06-17T08:46:08.591Z,59.45
2023-06-17T08:56:33.695Z,61.77
2023-06-17T09:06:57.988Z,58.34
2023-06-17T09:17:31.693Z,60.51
2023-06-17T09:38:23.087Z,60.87
2023-06-17T09:48:48.808Z,60.24
2023-06-17T09:59:13.840Z,59.47
2023-06-17T10:09:37.743Z,59.23
2023-06-17T10:20:07.088Z,58.68
2023-06-17T10:30:31.752Z,58.20
2023-06-17T10:40:56.169Z,57.17
2023-06-17T10:51:28.363Z,56.18
2023-06-17T11:02:03.535Z,57.52
2023-06-17T11:12:27.527Z,55.42
2023-06-17T11:22:52.648Z,54.75
2023-06-17T11:33:20.007Z,54.14
2023-06-17T11:43:43.902Z,53.62
2023-06-17T11:54:08.410Z,53.72
2023-06-17T12:04:33.052Z,53.12
2023-06-17T12:15:15.883Z,52.28
2023-06-17T12:25:41.169Z,51.99
2023-06-17T12:36:06.732Z,51.12
2023-06-17T12:46:30.368Z,51.84
2023-06-17T12:56:54.702Z,50.38
2023-06-17T13:07:19.067Z,52.82
2023-06-17T13:17:43.088Z,50.67
2023-06-17T13:28:07.920Z,49.72
2023-06-17T13:38:32.658Z,50.37
2023-06-17T13:48:56.412Z,48.93
2023-06-17T13:59:21.495Z,46.38
2023-06-17T14:09:45.929Z,46.33
2023-06-17T14:20:11.157Z,44.60
2023-06-17T14:30:36.121Z,46.12
2023-06-17T14:41:00.257Z,48.39
2023-06-17T14:51:24.668Z,50.89
2023-06-17T15:01:49.253Z,53.43
2023-06-17T15:12:15.639Z,54.11
2023-06-17T15:22:39.973Z,54.25
2023-06-17T15:33:04.778Z,53.86
2023-06-17T15:45:11.645Z,50.71
2023-06-17T15:56:10.487Z,45.83
2023-06-17T16:07:11.856Z,45.79
2023-06-17T16:17:36.970Z,44.97
2023-06-17T16:28:01.560Z,46.58
2023-06-17T16:38:26.962Z,50.11
2023-06-17T16:48:51.217Z,51.81
2023-06-17T16:59:15.315Z,53.87
2023-06-17T17:09:41.626Z,55.69
2023-06-17T17:20:06.568Z,55.58
2023-06-17T17:30:30.269Z,56.04
2023-06-17T17:40:54.200Z,56.21
2023-06-17T17:51:19.184Z,56.71
2023-06-17T18:01:43.377Z,57.99
2023-06-17T18:12:08.204Z,57.32
2023-06-17T18:22:32.284Z,55.08
2023-06-17T18:32:56.732Z,54.60
2023-06-17T18:43:22.343Z,57.40
2023-06-17T18:53:52.602Z,59.84
2023-06-17T19:04:16.893Z,60.92
2023-06-17T19:14:41.480Z,64.44
2023-06-17T19:25:07.198Z,61.19
2023-06-17T19:35:39.164Z,57.70
2023-06-17T19:46:05.448Z,62.18
2023-06-17T19:56:30.371Z,63.79
2023-06-17T20:06:54.477Z,60.91
2023-06-17T20:17:19.054Z,59.42
2023-06-17T20:27:46.292Z,64.33
2023-06-17T20:38:10.177Z,61.61
2023-06-17T20:48:34.978Z,60.22
2023-06-17T20:58:59.734Z,56.76
2023-06-17T21:09:24.070Z,58.76
2023-06-17T21:19:48.981Z,65.62
2023-06-17T21:30:13.705Z,66.22
2023-06-17T21:40:37.969Z,62.40
2023-06-17T21:51:02.741Z,61.14
2023-06-17T22:01:27.440Z,60.99
2023-06-17T22:11:52.094Z,61.40
2023-06-17T22:22:16.850Z,58.39
2023-06-17T22:32:41.860Z,64.16
2023-06-17T22:43:06.120Z,62.57
2023-06-17T22:53:31.524Z,61.95
2023-06-17T23:03:55.989Z,60.86
2023-06-17T23:14:19.711Z,60.83
2023-06-17T23:24:45.581Z,58.55
2023-06-17T23:35:09.953Z,56.87
2023-06-17T23:45:34.284Z,66.23
2023-06-17T23:55:58.469Z,64.07
